Aledo, IL

8:47 AM CDT on May 25, 2015 (GMT -0500)
KILALEDO2 | | Change Station
CLOSE
Current Station
Personal Weather Station
Location: Aledo, IL
Elevation: 735 ft
Nearby Weather Stations

Elev 735 ft 41.20 °N, 90.76 °W | Updated 1 second ago

Overcast
Overcast
66.4 °F
Feels Like 66.4 °F
N
7.2
Wind Variable Wind from West
Gusts 7.2 mph

Today
High -- | Low -- °F
--% Chance of Precip.
Yesterday
High -- | Low -- °F
Precip. -- in
5:36 AM 8:23 PM
Waxing Crescent, 49% visible
Pressure 29.83 in
Visibility 10.0 miles
Clouds Mostly Cloudy 1200 ft
Overcast 6000 ft
Dew Point 62 °F
Humidity 85%
Rainfall 0.12 in
Snow Depth Not available.
UV 1 out of 12
Pollen 6.90 out of 12
Air Quality Not available.
Flu Activity Sporadic
SPECI KMLI 251300Z 24013KT 10SM BKN012 OVC060 19/17 A2983 RMK AO2 T01940167 $

More Conditions Fewer Conditions

Pressure 29.83 in
Visibility 10.0 miles
Clouds Mostly Cloudy 1200 ft
Overcast 6000 ft
Dew Point 62 °F
Humidity 85%
Rainfall 0.12 in
Snow Depth Not available.
UV 1 out of 12
Pollen 6.90 out of 12
Air Quality Not available.
Flu Activity Sporadic
SPECI KMLI 251300Z 24013KT 10SM BKN012 OVC060 19/17 A2983 RMK AO2 T01940167 $

More Conditions Fewer Conditions

10-Day Weather Forecast

Almanac

Astronomy

May. 25, 2015 Rise Set
Actual Time
Civil Twilight
Nautical Twilight
Astronomical Twilight
Moon
Length of Visible Light
Length of Day
Tomorrow will be .
, % of the Moon is Illuminated

Today's Extremes

State Highs State Lows

Community

WunderPhotos

Upload Photos

1,824,009 photos uploaded!

WunderBlogs® & News

Nearby

Air Quality

  Air Quality AQ Index Pollutant
Not available.

Snow Depth

Station Depth Elevation

Earthquake Activity

City Distance Mag. Time & Date
Minimum magnitude displayed is 2.5.

Coastal Water Temperatures

Place Temperature

Stations

Nearby Weather Stations

Station Location Temp. Windchill Dew Point Humidity Wind Precip. Elev Updated Type